Terminal Aerodrome Forecast
Issued by NWS

Home | Current Version | Previous Version | Graphics & Text | Print | Product List | Glossary On
Versions: 1 2 3 4 5 6 7 8 9 10 11 12 13
000
FTUS43 KBIS 292300
TAFMOT
TAF
KMOT 292327Z 3000/3024 29017KT P6SM SCT060
     FM300200 VRB05KT P6SM SCT060
     FM301400 27012G18KT P6SM SCT200=

USA.gov is the U.S. government's official web portal to all federal, state and local government web resources and services.